Time;durP1;ratioP1;P1;durP2;ratioP2;P2;SDS_P1;SDS_P2;PMS_P1;PMS_P2;Temp;Humidity;BMP_temperature;BMP_pressure;BME280_temperature;BME280_humidity;BME280_pressure;Samples;Min_cycle;Max_cycle;Signal;HPM_P1;HPM_P2
2022/07/04 00:00:20;;;;;;;0.00;0.00;;;20.70;99.90;19.30;96347.00;;;;5053321;28;20217;-76
2022/07/04 00:02:49;;;;;;;0.00;0.00;;;20.60;99.90;19.20;96334.00;;;;5053781;28;20210;-76
2022/07/04 00:05:19;;;;;;;0.00;0.00;;;20.40;99.90;19.20;96353.00;;;;5053832;28;20198;-77
2022/07/04 00:07:49;;;;;;;0.00;0.00;;;20.40;99.90;19.30;96365.00;;;;5054125;28;20179;-77
2022/07/04 00:10:22;;;;;;;0.00;0.00;;;20.40;99.90;19.20;96345.00;;;;5054173;28;20209;-76
2022/07/04 00:12:51;;;;;;;0.00;0.00;;;20.30;99.90;19.10;96345.00;;;;5053407;28;20198;-76
2022/07/04 00:15:20;;;;;;;0.00;0.00;;;20.30;99.90;19.30;96365.00;;;;5053276;28;20194;-77
2022/07/04 00:17:48;;;;;;;0.00;0.00;;;20.40;99.90;19.30;96364.00;;;;5053071;28;20205;-76
2022/07/04 00:20:16;;;;;;;0.00;0.00;;;20.50;99.90;19.50;96380.00;;;;5053541;28;20214;-77
2022/07/04 00:22:44;;;;;;;0.00;0.00;;;20.50;99.90;19.40;96366.00;;;;5053141;28;20558;-76
2022/07/04 00:25:13;;;;;;;0.00;0.00;;;20.50;99.90;19.50;96383.00;;;;5052958;28;20185;-76
2022/07/04 00:27:41;;;;;;;0.00;0.00;;;20.50;99.90;19.30;96356.00;;;;5052883;28;20190;-74
2022/07/04 00:30:10;;;;;;;0.00;0.00;;;20.40;99.90;19.20;96367.00;;;;5051596;28;20222;-76
2022/07/04 00:32:40;;;;;;;0.00;0.00;;;20.20;99.90;19.10;96354.00;;;;5053081;28;20194;-76
2022/07/04 00:35:09;;;;;;;0.00;0.00;;;20.10;99.90;19.00;96364.00;;;;5053721;28;20201;-76
2022/07/04 00:37:37;;;;;;;0.00;0.00;;;20.10;99.90;18.90;96360.00;;;;5058838;28;20217;-75
2022/07/04 00:40:06;;;;;;;0.00;0.00;;;19.90;99.90;18.80;96349.00;;;;5059150;28;20220;-76
2022/07/04 00:42:34;;;;;;;0.00;0.00;;;20.00;99.90;18.90;96347.00;;;;5052851;28;20214;-76
2022/07/04 00:45:03;;;;;;;0.00;0.00;;;20.00;99.90;18.90;96346.00;;;;5054030;28;20202;-76
2022/07/04 00:47:31;;;;;;;0.00;0.00;;;19.90;99.90;18.90;96358.00;;;;5055286;28;20202;-77
2022/07/04 00:50:00;;;;;;;0.00;0.00;;;19.90;99.90;18.70;96332.00;;;;5055757;28;20279;-76
2022/07/04 00:52:29;;;;;;;0.00;0.00;;;19.80;99.90;18.60;96346.00;;;;5058913;28;20201;-76
2022/07/04 00:55:00;;;;;;;0.00;0.00;;;19.70;99.90;18.50;96365.00;;;;5055913;28;20191;-75
2022/07/04 00:57:28;;;;;;;0.00;0.00;;;19.60;99.90;18.40;96374.00;;;;5054038;28;20187;-76
2022/07/04 00:59:56;;;;;;;0.00;0.00;;;19.50;99.90;18.20;96356.00;;;;5053055;28;20260;-76
2022/07/04 01:02:24;;;;;;;0.00;0.00;;;19.40;99.90;18.30;96373.00;;;;5054185;28;20561;-77
2022/07/04 01:04:52;;;;;;;0.00;0.00;;;19.50;99.90;18.30;96361.00;;;;5053714;28;20193;-76
2022/07/04 01:07:23;;;;;;;0.00;0.00;;;19.40;99.90;18.30;96383.00;;;;5051213;28;20191;-77
2022/07/04 01:09:51;;;;;;;0.00;0.00;;;19.50;99.90;18.30;96374.00;;;;5051896;28;20219;-78
2022/07/04 01:12:28;;;;;;;0.00;0.00;;;19.40;99.90;18.20;96365.00;;;;5052244;28;20187;-76
2022/07/04 01:14:56;;;;;;;0.00;0.00;;;19.20;99.90;18.10;96366.00;;;;5051887;28;20198;-76
2022/07/04 01:17:24;;;;;;;0.00;0.00;;;19.10;99.90;18.10;96377.00;;;;5051295;28;20190;-77
2022/07/04 01:19:53;;;;;;;0.00;0.00;;;19.10;99.90;18.20;96384.00;;;;5052138;28;20218;-76
2022/07/04 01:22:22;;;;;;;0.00;0.00;;;19.30;99.90;18.10;96385.00;;;;5052348;28;20197;-77
2022/07/04 01:24:50;;;;;;;0.00;0.00;;;19.20;99.90;18.10;96371.00;;;;5052283;28;20226;-76
2022/07/04 01:27:18;;;;;;;0.00;0.00;;;19.30;99.90;18.10;96387.00;;;;5052652;28;20553;-76
2022/07/04 01:29:47;;;;;;;0.00;0.00;;;19.30;99.90;18.20;96319.00;;;;5051435;28;20237;-77
2022/07/04 01:32:14;;;;;;;0.00;0.00;;;19.30;99.90;18.10;96394.00;;;;5051882;28;20197;-76
2022/07/04 01:34:42;;;;;;;0.00;0.00;;;19.30;99.90;17.80;96372.00;;;;5051729;28;20201;-76
2022/07/04 01:37:11;;;;;;;0.00;0.00;;;19.00;99.90;17.80;96372.00;;;;5051709;28;20666;-76
2022/07/04 01:39:40;;;;;;;0.00;0.00;;;18.90;99.90;17.70;96368.00;;;;5051376;28;20264;-76
2022/07/04 01:42:09;;;;;;;0.00;0.00;;;18.80;99.90;17.70;96374.00;;;;5051950;28;20680;-76
2022/07/04 01:44:37;;;;;;;0.00;0.00;;;18.90;99.90;17.80;96378.00;;;;5051805;28;20190;-76
2022/07/04 01:47:06;;;;;;;0.00;0.00;;;19.00;99.90;17.80;96382.00;;;;5051988;28;20198;-76
2022/07/04 01:49:34;;;;;;;0.00;0.00;;;19.00;99.90;18.00;96389.00;;;;5052367;28;20610;-76
2022/07/04 01:52:03;;;;;;;0.00;0.00;;;19.10;99.90;18.00;96400.00;;;;5052032;28;20198;-76
2022/07/04 01:54:31;;;;;;;0.00;0.00;;;19.20;99.90;17.90;96405.00;;;;5052972;28;20191;-75
2022/07/04 01:57:00;;;;;;;0.00;0.00;;;19.20;99.90;17.80;96394.00;;;;5052922;28;20190;-75
2022/07/04 02:02:10;;;;;;;0.00;0.00;;;18.90;99.90;17.20;96373.00;;;;5052547;28;20264;-77
2022/07/04 02:04:39;;;;;;;0.00;0.00;;;18.70;99.90;17.30;96356.00;;;;5051904;28;20719;-77
2022/07/04 02:07:07;;;;;;;0.00;0.00;;;18.50;99.90;17.30;96360.00;;;;5052162;28;20205;-77
2022/07/04 02:09:35;;;;;;;0.00;0.00;;;18.50;99.90;17.30;96368.00;;;;5051526;28;20226;-77
2022/07/04 02:14:51;;;;;;;0.00;0.00;;;18.50;99.90;17.30;96376.00;;;;5051532;28;20195;-76
2022/07/04 02:17:19;;;;;;;0.00;0.00;;;18.50;99.90;17.20;96376.00;;;;5055330;28;20592;-76
2022/07/04 02:19:47;;;;;;;0.00;0.00;;;18.50;99.90;17.40;96387.00;;;;5055207;28;20214;-76
2022/07/04 02:22:16;;;;;;;0.00;0.00;;;18.70;99.90;17.40;96397.00;;;;5055945;28;20209;-76
2022/07/04 02:24:44;;;;;;;0.10;0.10;;;18.70;99.90;17.20;96375.00;;;;5055606;28;20201;-76
2022/07/04 02:27:14;;;;;;;0.00;0.00;;;18.50;99.90;17.00;96365.00;;;;5055781;28;20193;-76
2022/07/04 02:29:43;;;;;;;0.00;0.00;;;18.20;99.90;16.90;96369.00;;;;5055539;28;20222;-76
2022/07/04 02:32:11;;;;;;;0.00;0.00;;;18.10;99.90;16.90;96312.00;;;;5055308;28;20198;-76
2022/07/04 02:34:39;;;;;;;0.00;0.00;;;18.20;99.90;16.90;96379.00;;;;5055614;28;20544;-77
2022/07/04 02:37:07;;;;;;;0.00;0.00;;;18.10;99.90;17.00;96376.00;;;;5055144;28;20569;-76
2022/07/04 02:39:35;;;;;;;0.00;0.00;;;18.20;99.90;17.20;96391.00;;;;5055256;28;20214;-76
2022/07/04 02:42:03;;;;;;;0.00;0.00;;;18.40;99.90;17.20;96380.00;;;;5055667;28;20190;-76
2022/07/04 02:44:33;;;;;;;0.00;0.00;;;18.40;99.90;17.40;96382.00;;;;5054836;28;20198;-76
2022/07/04 02:47:01;;;;;;;0.00;0.00;;;18.50;99.90;17.50;96388.00;;;;5054704;28;20194;-76
2022/07/04 02:49:29;;;;;;;0.00;0.00;;;18.60;99.90;17.50;96388.00;;;;5054408;28;20218;-76
2022/07/04 02:51:57;;;;;;;0.00;0.00;;;18.60;99.90;17.80;96412.00;;;;5054543;28;20229;-76
2022/07/04 02:54:25;;;;;;;0.00;0.00;;;18.80;99.90;17.90;96418.00;;;;5054568;28;20240;-76
2022/07/04 02:56:53;;;;;;;0.00;0.00;;;19.00;99.90;17.90;96419.00;;;;5054484;28;20194;-76
2022/07/04 02:59:21;;;;;;;0.00;0.00;;;19.10;99.90;18.10;96419.00;;;;5054373;28;20210;-76
2022/07/04 03:01:50;;;;;;;0.00;0.00;;;19.10;99.90;18.10;96435.00;;;;5054502;28;20565;-76
2022/07/04 03:04:18;;;;;;;0.00;0.00;;;19.10;99.90;18.20;96431.00;;;;5054711;28;20199;-77
2022/07/04 03:06:46;;;;;;;0.00;0.00;;;19.20;99.90;18.20;96436.00;;;;5054559;28;20606;-76
2022/07/04 03:09:14;;;;;;;0.00;0.00;;;19.20;99.90;18.30;96433.00;;;;5053895;28;20210;-77
2022/07/04 03:11:42;;;;;;;0.00;0.00;;;19.30;99.90;18.30;96450.00;;;;5054314;28;20206;-76
2022/07/04 03:14:10;;;;;;;0.00;0.00;;;19.30;99.90;18.40;96457.00;;;;5054757;28;20658;-76
2022/07/04 03:16:38;;;;;;;0.00;0.00;;;19.40;99.90;18.30;96446.00;;;;5064610;28;20194;-75
2022/07/04 03:19:08;;;;;;;0.00;0.00;;;19.40;99.90;18.10;96439.00;;;;5053714;28;20692;-76
2022/07/04 03:21:36;;;;;;;0.00;0.00;;;19.20;99.90;18.10;96456.00;;;;5053906;28;20190;-75
2022/07/04 03:24:04;;;;;;;0.00;0.00;;;19.10;99.90;17.60;96410.00;;;;5053852;28;20225;-76
2022/07/04 03:26:33;;;;;;;0.00;0.00;;;18.80;99.90;17.30;96401.00;;;;5053740;28;20207;-76
2022/07/04 03:29:02;;;;;;;0.00;0.00;;;18.40;99.90;17.30;96403.00;;;;5054055;28;20624;-76
2022/07/04 03:31:30;;;;;;;0.00;0.00;;;18.40;99.90;17.30;96418.00;;;;5054555;28;20701;-77
2022/07/04 03:33:59;;;;;;;0.00;0.00;;;18.50;99.90;17.40;96420.00;;;;5054490;28;20191;-77
2022/07/04 03:36:28;;;;;;;0.00;0.00;;;18.60;99.90;17.40;96426.00;;;;5053331;28;20198;-76
2022/07/04 03:38:56;;;;;;;0.00;0.00;;;18.60;99.90;17.40;96413.00;;;;5053259;28;20225;-76
2022/07/04 03:41:24;;;;;;;0.00;0.00;;;18.60;99.90;17.60;96437.00;;;;5053854;28;20190;-76
2022/07/04 03:43:52;;;;;;;0.00;0.00;;;18.80;99.90;17.80;96441.00;;;;5054079;28;20674;-76
2022/07/04 03:46:20;;;;;;;0.08;0.08;;;18.90;99.90;17.80;96480.00;;;;5054532;28;20192;-77
2022/07/04 03:48:48;;;;;;;0.00;0.00;;;18.90;99.90;17.80;96410.00;;;;5053513;28;20210;-76
2022/07/04 03:51:16;;;;;;;0.00;0.00;;;18.80;99.90;17.70;96402.00;;;;5053567;28;20599;-76
2022/07/04 03:53:45;;;;;;;0.00;0.00;;;18.80;99.90;17.50;96400.00;;;;5054248;28;20193;-76
2022/07/04 03:56:13;;;;;;;0.00;0.00;;;18.70;99.90;17.50;96389.00;;;;5054241;28;20206;-77
2022/07/04 03:58:42;;;;;;;0.00;0.00;;;18.70;99.90;17.70;96425.00;;;;5054090;28;20194;-77
2022/07/04 04:01:10;;;;;;;0.00;0.00;;;18.90;99.90;18.00;96433.00;;;;5053643;28;20210;-76
2022/07/04 04:06:24;;;;;;;0.00;0.00;;;19.20;99.90;18.20;96450.00;;;;5053345;28;20190;-76
2022/07/04 04:08:53;;;;;;;0.00;0.00;;;19.20;99.90;18.20;96459.00;;;;5053295;28;20191;-77
2022/07/04 04:11:21;;;;;;;0.00;0.00;;;19.30;99.90;17.80;96415.00;;;;5053119;28;20222;-76
2022/07/04 04:13:50;;;;;;;0.00;0.00;;;18.80;99.90;17.40;96399.00;;;;5053240;28;20195;-76
2022/07/04 04:16:18;;;;;;;0.00;0.00;;;18.40;99.90;17.40;96397.00;;;;5053638;28;20240;-76
2022/07/04 04:18:46;;;;;;;0.00;0.00;;;18.50;99.90;17.30;96402.00;;;;5053280;28;20624;-76
2022/07/04 04:21:14;;;;;;;0.00;0.00;;;18.50;99.90;17.20;96395.00;;;;5053340;28;20580;-76
2022/07/04 04:23:42;;;;;;;0.00;0.00;;;18.40;99.90;17.20;96397.00;;;;5053326;28;20681;-76
2022/07/04 04:26:12;;;;;;;0.00;0.00;;;18.40;99.90;17.30;96407.00;;;;5053300;28;20194;-76
2022/07/04 04:28:40;;;;;;;0.00;0.00;;;18.50;99.90;17.40;96419.00;;;;5052753;28;20210;-76
2022/07/04 04:31:08;;;;;;;0.00;0.00;;;18.50;99.90;17.50;96419.00;;;;5052871;28;20225;-76
2022/07/04 04:33:36;;;;;;;0.00;0.00;;;18.70;99.90;17.50;96415.00;;;;5053772;28;20316;-76
2022/07/04 04:36:05;;;;;;;0.00;0.00;;;18.70;99.90;17.60;96410.00;;;;5056270;28;20198;-76
2022/07/04 04:38:33;;;;;;;0.00;0.00;;;18.70;99.90;17.80;96419.00;;;;5057054;28;20285;-76
2022/07/04 04:41:01;;;;;;;0.00;0.00;;;18.80;99.90;17.90;96427.00;;;;5057922;28;20585;-77
2022/07/04 04:43:31;;;;;;;0.00;0.00;;;18.90;99.90;18.00;96435.00;;;;5056902;28;20205;-77
2022/07/04 04:45:59;;;;;;;0.00;0.00;;;19.00;99.90;17.90;96447.00;;;;5058385;28;20190;-76
2022/07/04 04:48:27;;;;;;;0.00;0.00;;;18.90;99.90;17.90;96419.00;;;;5056646;28;20194;-76
2022/07/04 04:50:55;;;;;;;0.00;0.00;;;18.90;99.90;17.70;96420.00;;;;5057131;28;20229;-76
2022/07/04 04:53:25;;;;;;;0.00;0.00;;;18.80;99.90;17.70;96431.00;;;;5057708;28;20191;-76
2022/07/04 04:55:53;;;;;;;0.00;0.00;;;18.80;99.90;17.80;96439.00;;;;5060958;28;20194;-76
2022/07/04 04:58:23;;;;;;;0.00;0.00;;;18.90;99.90;18.00;96452.00;;;;5063695;28;20186;-76
2022/07/04 05:00:52;;;;;;;0.00;0.00;;;19.00;99.90;18.20;96474.00;;;;5063389;28;20217;-76
2022/07/04 05:03:41;;;;;;;0.00;0.00;;;19.20;99.90;18.30;96466.00;;;;5062069;28;20190;-76
2022/07/04 05:06:10;;;;;;;0.00;0.00;;;19.30;99.90;18.50;96501.00;;;;5060376;28;20605;-76
2022/07/04 05:08:38;;;;;;;0.00;0.00;;;19.50;99.90;18.60;96511.00;;;;5054321;28;20202;-76
2022/07/04 05:11:06;;;;;;;0.00;0.00;;;19.60;99.90;18.70;96511.00;;;;5053605;28;20225;-76
2022/07/04 05:13:34;;;;;;;0.00;0.00;;;19.70;99.90;18.80;96503.00;;;;5053226;28;20178;-75
2022/07/04 05:16:05;;;;;;;0.00;0.00;;;19.80;99.90;18.90;96531.00;;;;5052181;28;20213;-75
2022/07/04 05:18:33;;;;;;;0.00;0.00;;;19.90;99.90;19.00;96371.00;;;;5052844;28;20201;-76
2022/07/04 05:21:01;;;;;;;0.00;0.00;;;20.00;99.90;19.00;96508.00;;;;5052331;28;20229;-76
2022/07/04 05:23:29;;;;;;;0.00;0.00;;;20.00;99.90;19.00;96497.00;;;;5052588;28;20712;-76
2022/07/04 05:25:57;;;;;;;0.00;0.00;;;20.00;99.90;18.80;96499.00;;;;5052579;28;20194;-76
2022/07/04 05:28:25;;;;;;;0.00;0.00;;;19.90;99.90;18.90;96502.00;;;;5053015;28;20194;-76
2022/07/04 05:30:53;;;;;;;0.00;0.00;;;19.90;99.90;19.00;96494.00;;;;5051929;28;20297;-76
2022/07/04 05:33:22;;;;;;;0.00;0.00;;;20.00;99.90;19.10;96491.00;;;;5052378;28;20194;-76
2022/07/04 05:35:50;;;;;;;0.00;0.00;;;20.10;99.90;19.20;96496.00;;;;5052208;28;20190;-76
2022/07/04 05:38:18;;;;;;;0.00;0.00;;;20.10;99.90;19.20;96500.00;;;;5052008;28;20198;-76
2022/07/04 05:40:46;;;;;;;0.00;0.00;;;20.20;99.90;19.30;96495.00;;;;5052088;28;20229;-76
2022/07/04 05:43:14;;;;;;;0.00;0.00;;;20.30;99.90;19.40;96500.00;;;;5052630;28;20206;-76
2022/07/04 05:45:42;;;;;;;0.00;0.00;;;20.40;99.90;19.30;96503.00;;;;5052450;28;20186;-77
2022/07/04 05:48:10;;;;;;;0.00;0.00;;;20.40;99.90;19.20;96502.00;;;;5053398;28;20566;-78
2022/07/04 05:50:40;;;;;;;0.00;0.00;;;20.30;99.90;19.40;96520.00;;;;5054274;28;20214;-75
2022/07/04 05:53:08;;;;;;;0.00;0.00;;;20.40;99.90;19.60;96534.00;;;;5057489;28;20605;-78
2022/07/04 05:55:36;;;;;;;0.00;0.00;;;20.50;99.90;19.60;96463.00;;;;5057334;28;20202;-76
2022/07/04 05:58:04;;;;;;;0.00;0.00;;;20.60;99.90;19.60;96542.00;;;;5055696;28;20205;-76
2022/07/04 06:00:32;;;;;;;0.00;0.00;;;20.70;99.90;19.80;96549.00;;;;5056019;28;20225;-76
2022/07/04 06:03:00;;;;;;;0.00;0.00;;;20.70;99.90;19.90;96553.00;;;;5055929;28;20605;-76
2022/07/04 06:05:28;;;;;;;0.00;0.00;;;20.90;99.90;19.90;96514.00;;;;5055776;28;20662;-77
2022/07/04 06:07:57;;;;;;;0.00;0.00;;;20.90;99.90;19.90;96550.00;;;;5055382;28;20213;-76
2022/07/04 06:10:25;;;;;;;0.00;0.00;;;20.90;99.90;19.90;96556.00;;;;5055764;28;20214;-77
2022/07/04 06:12:53;;;;;;;0.00;0.00;;;20.90;99.90;19.90;96548.00;;;;5055345;28;20225;-77
2022/07/04 06:15:21;;;;;;;0.00;0.00;;;20.90;99.90;19.90;96558.00;;;;5055667;28;20194;-78
2022/07/04 06:17:49;;;;;;;0.00;0.00;;;20.90;99.90;19.90;96546.00;;;;5056282;28;20203;-77
2022/07/04 06:20:17;;;;;;;0.00;0.00;;;20.90;99.90;19.90;96554.00;;;;5057260;28;20571;-77
2022/07/04 06:22:48;;;;;;;0.00;0.00;;;20.90;99.90;19.90;96573.00;;;;5056845;28;20715;-77
2022/07/04 06:25:20;;;;;;;0.00;0.00;;;20.90;99.90;20.00;96529.00;;;;5056983;28;20278;-77
2022/07/04 06:27:51;;;;;;;0.00;0.00;;;21.00;99.90;20.10;96569.00;;;;5056405;28;20217;-76
2022/07/04 06:30:19;;;;;;;0.00;0.00;;;21.10;99.90;20.20;96551.00;;;;5056331;28;20206;-78
2022/07/04 06:32:51;;;;;;;0.00;0.00;;;21.20;99.90;20.30;96548.00;;;;5055960;28;20245;-77
2022/07/04 06:38:08;;;;;;;0.00;0.00;;;21.30;99.90;20.50;96571.00;;;;5055664;28;20255;-77
2022/07/04 06:40:39;;;;;;;0.00;0.00;;;21.50;99.90;20.60;96578.00;;;;5056049;28;20211;-77
2022/07/04 06:43:08;;;;;;;0.00;0.00;;;21.50;99.90;20.60;96561.00;;;;5055941;28;20205;-77
2022/07/04 06:45:37;;;;;;;0.00;0.00;;;21.60;99.90;20.70;96592.00;;;;5056279;28;20574;-79
2022/07/04 06:48:07;;;;;;;0.00;0.00;;;21.60;99.90;20.70;96595.00;;;;5059513;28;20186;-77
2022/07/04 06:50:36;;;;;;;0.00;0.00;;;21.70;99.90;20.70;96590.00;;;;5066342;28;20214;-77
2022/07/04 06:53:10;;;;;;;0.00;0.00;;;21.70;99.90;20.80;96586.00;;;;5063523;28;20309;-77
2022/07/04 06:55:41;;;;;;;0.00;0.00;;;21.80;99.90;20.80;96576.00;;;;5056865;28;20195;-77
2022/07/04 06:58:12;;;;;;;0.00;0.00;;;21.80;99.90;20.90;96587.00;;;;5055583;28;20548;-77
2022/07/04 07:00:41;;;;;;;0.00;0.00;;;21.80;99.90;20.90;96591.00;;;;5055206;28;20211;-77
2022/07/04 07:03:09;;;;;;;0.00;0.00;;;21.80;99.90;20.90;96599.00;;;;5055441;28;20657;-77
2022/07/04 07:05:38;;;;;;;0.00;0.00;;;22.00;99.90;21.10;96598.00;;;;5055171;28;20273;-77
2022/07/04 07:08:26;;;;;;;0.00;0.00;;;22.00;99.90;21.10;96594.00;;;;5055323;28;20264;-77
2022/07/04 07:10:56;;;;;;;0.00;0.00;;;22.00;99.90;21.10;96602.00;;;;5070024;28;20226;-77
2022/07/04 07:13:24;;;;;;;0.00;0.00;;;22.10;99.90;21.00;96617.00;;;;5058339;28;20222;-76
2022/07/04 07:15:52;;;;;;;0.00;0.00;;;22.00;99.90;21.10;96603.00;;;;5054082;28;20195;-77
2022/07/04 07:18:19;;;;;;;0.00;0.00;;;22.00;99.90;21.20;96600.00;;;;5054348;28;20197;-76
2022/07/04 07:20:47;;;;;;;0.00;0.00;;;22.10;99.90;21.10;96587.00;;;;5054010;28;20214;-76
2022/07/04 07:23:15;;;;;;;0.00;0.00;;;22.10;99.90;21.30;96600.00;;;;5054272;28;20198;-76
2022/07/04 07:25:43;;;;;;;0.00;0.00;;;22.10;99.90;21.30;96595.00;;;;5054065;28;20217;-76
2022/07/04 07:28:13;;;;;;;0.00;0.00;;;22.20;99.90;21.20;96599.00;;;;5054316;28;20198;-77
2022/07/04 07:30:41;;;;;;;0.00;0.00;;;22.20;99.90;21.30;96607.00;;;;5053767;28;20260;-76
2022/07/04 07:33:09;;;;;;;0.00;0.00;;;22.20;99.90;21.30;96611.00;;;;5053766;28;20225;-76
2022/07/04 07:35:37;;;;;;;0.00;0.00;;;22.20;99.90;21.40;96611.00;;;;5054432;28;20190;-76
2022/07/04 07:38:06;;;;;;;0.00;0.00;;;22.30;99.90;21.70;96603.00;;;;5054417;28;20674;-76
2022/07/04 07:40:35;;;;;;;0.00;0.00;;;22.40;99.90;21.70;96608.00;;;;5054325;28;20214;-75
2022/07/04 07:43:03;;;;;;;0.00;0.00;;;22.50;99.90;21.70;96615.00;;;;5053959;28;20198;-75
2022/07/04 07:45:32;;;;;;;0.00;0.00;;;22.50;99.90;21.80;96615.00;;;;5053766;28;20198;-75
2022/07/04 07:48:00;;;;;;;0.00;0.00;;;22.60;99.90;22.00;96636.00;;;;5053677;28;20190;-74
2022/07/04 07:50:28;;;;;;;0.00;0.00;;;22.80;99.90;22.10;96614.00;;;;5054015;28;20218;-75
2022/07/04 07:52:56;;;;;;;0.00;0.00;;;22.90;99.90;22.20;96609.00;;;;5055404;28;20210;-77
2022/07/04 07:55:25;;;;;;;0.00;0.00;;;23.00;99.90;22.50;96616.00;;;;5056202;28;20214;-77
2022/07/04 07:57:53;;;;;;;0.00;0.00;;;23.20;99.90;22.50;96617.00;;;;5058474;28;20202;-76
2022/07/04 08:00:21;;;;;;;0.00;0.00;;;23.30;99.90;22.70;96629.00;;;;5058616;28;20210;-77
2022/07/04 08:05:57;;;;;;;0.00;0.00;;;23.50;99.90;23.00;96641.00;;;;5056670;28;20198;-77
2022/07/04 08:08:25;;;;;;;0.00;0.00;;;23.70;99.90;23.20;96653.00;;;;5053332;28;20190;-76
2022/07/04 08:10:53;;;;;;;0.00;0.00;;;23.90;99.90;23.50;96647.00;;;;5057306;28;20226;-77
2022/07/04 08:13:21;;;;;;;0.00;0.00;;;24.10;99.90;23.70;96661.00;;;;5055127;28;20223;-76
2022/07/04 08:15:49;;;;;;;0.00;0.00;;;24.30;99.90;23.90;96660.00;;;;5053831;28;20195;-76
2022/07/04 08:18:18;;;;;;;0.00;0.00;;;24.50;99.90;23.90;96653.00;;;;5052798;28;20269;-74
2022/07/04 08:20:46;;;;;;;0.00;0.00;;;24.60;99.90;24.10;96664.00;;;;5053242;28;20210;-75
2022/07/04 08:23:30;;;;;;;0.00;0.00;;;24.80;99.90;24.20;96666.00;;;;5053634;28;20218;-74
2022/07/04 08:25:58;;;;;;;0.00;0.00;;;24.90;99.90;24.50;96668.00;;;;5053427;28;20256;-74
2022/07/04 08:28:27;;;;;;;0.00;0.00;;;25.10;99.90;24.60;96673.00;;;;5052810;28;20732;-74
2022/07/04 08:30:57;;;;;;;0.00;0.00;;;25.30;99.90;24.80;96656.00;;;;5052792;28;20214;-74
2022/07/04 08:33:26;;;;;;;0.00;0.00;;;25.40;99.90;24.80;96667.00;;;;5052267;28;20297;-75
2022/07/04 08:35:59;;;;;;;0.00;0.00;;;25.50;99.90;25.00;96672.00;;;;5052836;28;20186;-74
2022/07/04 08:38:28;;;;;;;0.00;0.00;;;25.70;99.90;25.00;96676.00;;;;5052915;28;20205;-74
2022/07/04 08:41:00;;;;;;;0.00;0.00;;;25.70;99.90;25.20;96660.00;;;;5052672;28;20222;-73
2022/07/04 08:43:28;;;;;;;0.00;0.00;;;25.80;99.90;25.50;96681.00;;;;5052593;28;20191;-74
2022/07/04 08:45:59;;;;;;;0.00;0.00;;;26.00;99.80;25.40;96677.00;;;;5052668;28;20719;-75
2022/07/04 08:48:54;;;;;;;0.00;0.00;;;26.10;99.70;25.70;96685.00;;;;5052252;28;20195;-75
2022/07/04 08:51:38;;;;;;;0.00;0.00;;;26.20;99.30;25.60;96680.00;;;;5052502;28;20194;-75
2022/07/04 08:58:25;;;;;;;0.00;0.00;;;26.20;99.20;25.80;96692.00;;;;5052389;28;20244;-75
2022/07/04 08:59:48;;;;;;;0.00;0.00;;;26.40;98.90;26.00;96691.00;;;;5052094;28;20234;-75
2022/07/04 09:02:19;;;;;;;0.00;0.00;;;26.60;98.80;26.20;96701.00;;;;5052647;28;20571;-74
2022/07/04 09:04:50;;;;;;;0.00;0.00;;;26.70;98.70;26.20;96702.00;;;;5052269;28;20194;-75
2022/07/04 09:07:18;;;;;;;0.00;0.00;;;26.80;98.30;26.40;96706.00;;;;5052769;28;20206;-77
2022/07/04 09:09:47;;;;;;;0.00;0.00;;;26.90;98.30;26.30;96695.00;;;;5051897;28;20751;-75
2022/07/04 09:12:18;;;;;;;0.00;0.00;;;27.00;98.00;26.50;96699.00;;;;5053544;28;20187;-77
2022/07/04 09:14:47;;;;;;;0.00;0.00;;;27.10;97.60;26.40;96699.00;;;;5053270;28;20218;-75
2022/07/04 09:17:15;;;;;;;0.00;0.00;;;27.00;97.70;26.50;96700.00;;;;5052598;28;20191;-75
2022/07/04 09:19:43;;;;;;;0.00;0.00;;;27.10;97.60;26.60;96707.00;;;;5053288;28;20217;-74
2022/07/04 09:22:14;;;;;;;0.00;0.00;;;27.20;97.40;26.70;96705.00;;;;5055637;28;20202;-77
2022/07/04 09:24:47;;;;;;;0.00;0.00;;;27.30;97.40;26.50;96701.00;;;;5052926;28;20210;-76
2022/07/04 09:27:31;;;;;;;0.00;0.00;;;27.30;96.70;26.50;96699.00;;;;5053326;28;20190;-75
2022/07/04 09:29:59;;;;;;;0.00;0.00;;;27.20;97.30;26.90;96714.00;;;;5052299;28;20210;-75
2022/07/04 09:32:43;;;;;;;0.00;0.00;;;27.50;96.90;26.70;96706.00;;;;5052261;28;20194;-75
2022/07/04 09:35:13;;;;;;;0.00;0.00;;;27.50;96.50;26.80;96708.00;;;;5052370;28;20190;-75
2022/07/04 09:37:46;;;;;;;0.00;0.00;;;27.50;96.80;26.80;96684.00;;;;5052290;28;20202;-76
2022/07/04 09:40:25;;;;;;;0.00;0.00;;;27.40;96.40;26.70;96682.00;;;;5052200;28;20210;-76
2022/07/04 09:42:56;;;;;;;0.00;0.00;;;27.40;96.50;26.50;96688.00;;;;5052209;28;20194;-76
2022/07/04 09:45:25;;;;;;;0.00;0.00;;;27.50;96.40;26.50;96686.00;;;;5052571;28;20670;-75
2022/07/04 09:47:56;;;;;;;0.00;0.00;;;27.20;96.90;26.60;96685.00;;;;5052687;28;20194;-76
2022/07/04 09:50:28;;;;;;;0.00;0.00;;;27.40;96.80;27.10;96713.00;;;;5052500;28;20723;-76
2022/07/04 09:53:00;;;;;;;0.00;0.00;;;27.70;96.50;26.90;96680.00;;;;5053397;28;20201;-76
2022/07/04 09:55:31;;;;;;;0.00;0.00;;;27.70;96.20;27.40;96705.00;;;;5053240;28;20200;-76
2022/07/04 09:58:03;;;;;;;0.00;0.00;;;28.00;96.10;27.70;96701.00;;;;5052004;28;20205;-76
2022/07/04 10:00:35;;;;;;;0.00;0.00;;;28.20;96.00;27.70;96706.00;;;;5052485;28;20210;-77
2022/07/04 10:03:21;;;;;;;0.00;0.00;;;28.30;95.70;27.90;96709.00;;;;5051998;28;20190;-75
2022/07/04 10:06:04;;;;;;;0.00;0.00;;;28.40;95.60;27.50;96707.00;;;;5052155;28;20186;-73
2022/07/04 10:08:34;;;;;;;0.00;0.00;;;28.40;94.70;28.00;96709.00;;;;5051852;28;20538;-74
2022/07/04 10:11:05;;;;;;;0.00;0.00;;;28.60;95.00;28.30;96715.00;;;;5051667;28;20210;-75
2022/07/04 10:13:38;;;;;;;0.00;0.00;;;28.80;95.00;28.20;96709.00;;;;5052024;28;20229;-73
2022/07/04 10:16:07;;;;;;;0.00;0.00;;;28.90;94.60;28.40;96675.00;;;;5052183;28;20201;-74
2022/07/04 10:18:36;;;;;;;0.00;0.00;;;28.80;94.70;28.60;96734.00;;;;5051542;28;20201;-73
2022/07/04 10:21:04;;;;;;;0.00;0.00;;;29.10;94.50;29.00;96741.00;;;;5051960;28;20218;-73
2022/07/04 10:23:35;;;;;;;0.00;0.00;;;29.40;94.00;29.10;96720.00;;;;5050411;28;20211;-75
2022/07/04 10:26:04;;;;;;;0.00;0.00;;;29.60;93.70;28.50;96707.00;;;;5051686;28;20682;-74
2022/07/04 10:28:33;;;;;;;0.00;0.00;;;28.80;93.80;28.70;96718.00;;;;5051809;28;20191;-74
2022/07/04 10:31:02;;;;;;;0.00;0.00;;;29.10;94.00;28.90;96730.00;;;;5051597;28;20206;-74
2022/07/04 10:33:31;;;;;;;0.00;0.00;;;29.40;93.60;29.00;96709.00;;;;5051597;28;20727;-74
2022/07/04 10:36:02;;;;;;;0.00;0.00;;;29.40;93.00;29.00;96725.00;;;;5051988;28;20198;-73
2022/07/04 10:38:31;;;;;;;0.00;0.00;;;29.60;93.30;29.30;96730.00;;;;5059571;28;20194;-74
2022/07/04 10:41:06;;;;;;;0.00;0.00;;;29.90;92.80;29.10;96704.00;;;;5055422;28;20237;-74
2022/07/04 10:44:06;;;;;;;0.00;0.00;;;29.40;92.80;29.50;96735.00;;;;5055083;28;20193;-73
2022/07/04 10:46:46;;;;;;;0.00;0.00;;;29.90;92.60;29.90;96690.00;;;;5053905;28;20297;-74
2022/07/04 10:49:27;;;;;;;0.00;0.00;;;30.20;92.50;29.00;96712.00;;;;5055697;28;20658;-74
2022/07/04 10:52:08;;;;;;;0.00;0.00;;;29.80;92.60;29.70;96751.00;;;;5056943;28;20747;-73
2022/07/04 10:54:38;;;;;;;0.00;0.00;;;30.10;92.30;29.50;96733.00;;;;5057328;28;20221;-74
2022/07/04 10:57:15;;;;;;;0.00;0.00;;;30.00;92.30;29.20;96721.00;;;;5058615;28;20194;-74
2022/07/04 11:00:01;;;;;;;0.00;0.00;;;29.70;92.20;29.20;96721.00;;;;5059898;28;20216;-75
2022/07/04 11:02:31;;;;;;;0.00;0.00;;;29.70;92.20;27.90;96674.00;;;;5057971;28;20190;-74
2022/07/04 11:05:02;;;;;;;0.00;0.00;;;29.20;92.30;28.80;96710.00;;;;5059834;28;20739;-74
2022/07/04 11:07:57;;;;;;;0.00;0.00;;;29.50;92.50;29.00;96715.00;;;;5054958;28;20586;-74
2022/07/04 11:10:26;;;;;;;0.00;0.00;;;29.70;92.10;29.50;96716.00;;;;5054603;28;20222;-73
2022/07/04 11:13:14;;;;;;;0.00;0.00;;;29.90;92.50;29.70;96730.00;;;;5054332;28;20236;-74
2022/07/04 11:16:00;;;;;;;0.00;0.00;;;30.20;91.60;29.70;96721.00;;;;5054405;28;20222;-74
2022/07/04 11:18:29;;;;;;;0.00;0.00;;;30.30;91.60;29.80;96727.00;;;;5054117;28;20186;-74
2022/07/04 11:20:58;;;;;;;0.00;0.00;;;30.30;91.40;30.10;96733.00;;;;5054540;28;20225;-74
2022/07/04 11:23:26;;;;;;;0.00;0.00;;;30.50;91.50;30.40;96747.00;;;;5054643;28;20206;-75